Flight Track Log - Related Links

Times and Time Zones

All times are in EDT time to prevent confusion due to time zone crossing. See the CES5141 flight status page for this flight to view local times or setup timezone preferences in your user account.

Time Position Orientation Groundspeed Altitude Reporting Facility
EDT Latitude Longitude Course Direction KTS MPH feet Rate Location/Type
Sun 09:22:00 AM 40.2059 115.2747 278° West  Level Estimated
Sun 09:23:00 AM 40.2150 115.1738 277° West  Level Estimated
Sun 09:24:00 AM 40.2240 115.0728 277° West  Level Estimated
Sun 09:25:00 AM 40.2329 114.9718 277° West  Level Estimated
Sun 09:26:00 AM 40.2417 114.8708 277° West  Level Estimated
Sun 09:27:00 AM 40.2504 114.7697 276° West  Level Estimated
Sun 09:28:00 AM 40.2590 114.6686 276° West  Level Estimated
Sun 09:29:00 AM 40.2676 114.5675 276° West  Level Estimated
Sun 09:30:00 AM 40.2760 114.4664 276° West  Level Estimated
Sun 09:31:00 AM 40.2844 114.3652 276° West  Level Estimated
Sun 09:32:00 AM 40.2927 114.2640 276° West  Level Estimated
Sun 09:33:00 AM 40.3008 114.1628 276° West  Level Estimated
Sun 09:34:00 AM 40.3089 114.0616 276° West  Level Estimated
Sun 09:35:00 AM 40.3170 113.9603 276° West  Level Estimated
Sun 09:36:00 AM 40.3249 113.8590 276° West  Level Estimated
Sun 09:37:00 AM 40.3327 113.7577 276° West  Level Estimated
Sun 09:38:00 AM 40.3405 113.6564 276° West  Level Estimated
Sun 09:39:00 AM 40.3481 113.5551 276° West  Level Estimated
Sun 09:40:00 AM 40.3557 113.4537 276° West  Level Estimated
Sun 09:41:00 AM 40.3632 113.3523 276° West  Level Estimated
Sun 09:42:00 AM 40.3706 113.2508 275° West  Level Estimated
Sun 09:43:00 AM 40.3779 113.1494 275° West  Level Estimated
Sun 09:44:00 AM 40.3851 113.0480 275° West  Level Estimated
Sun 09:45:00 AM 40.3922 112.9465 275° West  Level Estimated
Sun 09:46:00 AM 40.3992 112.8449 275° West  Level Estimated
Sun 09:47:00 AM 40.4062 112.7434 275° West  Level Estimated
Sun 09:48:00 AM 40.4131 112.6419 275° West  Level Estimated
Sun 09:49:00 AM 40.4198 112.5403 275° West  Level Estimated
Sun 09:50:00 AM 40.4265 112.4387 275° West  Level Estimated
Sun 09:51:00 AM 40.4331 112.3371 275° West  Level Estimated
Sun 09:52:00 AM 40.4396 112.2355 275° West  Level Estimated
Sun 09:53:00 AM 40.4460 112.1338 275° West  Level Estimated
Sun 09:54:00 AM 40.4523 112.0322 275° West  Level Estimated
Sun 09:55:00 AM 40.4586 111.9305 275° West  Level Estimated
Sun 09:56:00 AM 40.4647 111.8288 275° West  Level Estimated
Sun 09:57:00 AM 40.4727 111.6938 275° West  Level Estimated
Sun 09:58:00 AM 40.4806 111.5588 274° West  Level Estimated
Sun 09:59:00 AM 40.4883 111.4238 274° West  Level Estimated
Sun 10:00:00 AM 40.4958 111.2888 274° West  Level Estimated
Sun 10:01:00 AM 40.5032 111.1537 274° West  Level Estimated
Sun 10:02:00 AM 40.5105 111.0186 274° West  Level Estimated
Sun 10:03:00 AM 40.5175 110.8835 274° West  Level Estimated
Sun 10:04:00 AM 40.5244 110.7483 274° West  Level Estimated
Sun 10:05:00 AM 40.5312 110.6131 274° West  Level Estimated
Sun 10:06:00 AM 40.5378 110.4779 274° West  Level Estimated
Sun 10:07:00 AM 40.5443 110.3427 274° West  Level Estimated
Sun 10:08:00 AM 40.5505 110.2074 274° West  Level Estimated
Sun 10:09:00 AM 40.5567 110.0721 273° West  Level Estimated
Sun 10:10:00 AM 40.5600 109.9969 273° West  Level Estimated
Sun 10:11:00 AM 40.5600 109.9969 108° East  Level Estimated
Sun 10:12:00 AM 40.5600 109.9969 108° East  Level Estimated
Sun 10:13:00 AM 40.5600 109.9969 108° East  Level Estimated
Sun 10:14:00 AM 40.5600 109.9969 108° East  Level Estimated

Login

Don't have an account? Register now (free) for customized features, flight alerts, and more!